createdAt,value
2023-04-08T00:01:57.338Z,100.00
2023-04-08T00:04:24.942Z,100.00
2023-04-08T00:06:52.407Z,100.00
2023-04-08T00:09:21.248Z,100.00
2023-04-08T00:11:48.670Z,100.00
2023-04-08T00:14:16.258Z,100.00
2023-04-08T00:16:43.725Z,100.00
2023-04-08T00:19:11.549Z,100.00
2023-04-08T00:21:38.921Z,100.00
2023-04-08T00:24:06.979Z,100.00
2023-04-08T00:26:35.866Z,100.00
2023-04-08T00:29:03.296Z,100.00
2023-04-08T00:31:30.983Z,100.00
2023-04-08T00:33:58.828Z,100.00
2023-04-08T00:36:27.655Z,100.00
2023-04-08T00:38:55.456Z,100.00
2023-04-08T00:41:22.850Z,100.00
2023-04-08T00:43:51.590Z,100.00
2023-04-08T00:46:19.658Z,100.00
2023-04-08T00:48:47.138Z,100.00
2023-04-08T00:51:14.614Z,100.00
2023-04-08T00:53:42.075Z,100.00
2023-04-08T00:56:09.498Z,100.00
2023-04-08T00:58:37.138Z,100.00
2023-04-08T01:01:11.452Z,100.00
2023-04-08T01:03:46.196Z,100.00
2023-04-08T01:06:20.627Z,100.00
2023-04-08T01:08:49.401Z,100.00
2023-04-08T01:11:17.602Z,100.00
2023-04-08T01:13:46.602Z,100.00
2023-04-08T01:16:17.590Z,100.00
2023-04-08T01:18:47.463Z,100.00
2023-04-08T01:21:17.353Z,100.00
2023-04-08T01:24:00.626Z,100.00
2023-04-08T01:26:30.235Z,100.00
2023-04-08T01:29:01.398Z,100.00
2023-04-08T01:31:30.456Z,100.00
2023-04-08T01:34:00.654Z,100.00
2023-04-08T01:36:29.603Z,100.00
2023-04-08T01:38:57.609Z,100.00
2023-04-08T01:41:25.467Z,100.00
2023-04-08T01:43:55.630Z,100.00
2023-04-08T01:46:23.567Z,100.00
2023-04-08T01:48:52.378Z,100.00
2023-04-08T01:51:21.078Z,100.00
2023-04-08T01:53:48.546Z,100.00
2023-04-08T01:56:17.325Z,100.00
2023-04-08T01:58:50.312Z,100.00
2023-04-08T02:01:21.979Z,100.00
2023-04-08T02:03:52.144Z,100.00
2023-04-08T02:06:19.681Z,100.00
2023-04-08T02:08:47.151Z,100.00
2023-04-08T02:11:14.715Z,100.00
2023-04-08T02:13:42.491Z,100.00
2023-04-08T02:16:16.243Z,100.00
2023-04-08T02:18:52.947Z,100.00
2023-04-08T02:21:23.870Z,100.00
2023-04-08T02:23:52.118Z,100.00
2023-04-08T02:26:21.904Z,100.00
2023-04-08T02:28:51.114Z,100.00
2023-04-08T02:31:20.509Z,100.00
2023-04-08T02:33:50.793Z,100.00
2023-04-08T02:36:18.766Z,100.00
2023-04-08T02:38:49.303Z,100.00
2023-04-08T02:41:16.973Z,100.00
2023-04-08T02:43:44.617Z,100.00
2023-04-08T02:46:12.920Z,100.00
2023-04-08T02:48:40.323Z,100.00
2023-04-08T02:51:09.265Z,100.00
2023-04-08T02:53:36.711Z,100.00
2023-04-08T02:56:04.189Z,100.00
2023-04-08T02:58:31.655Z,100.00
2023-04-08T03:00:59.099Z,100.00
2023-04-08T03:03:29.777Z,100.00
2023-04-08T03:05:58.195Z,100.00
2023-04-08T03:08:27.033Z,100.00
2023-04-08T03:10:54.429Z,100.00
2023-04-08T03:13:21.841Z,100.00
2023-04-08T03:15:49.301Z,100.00
2023-04-08T03:18:17.769Z,100.00
2023-04-08T03:20:45.221Z,100.00
2023-04-08T03:23:12.629Z,100.00
2023-04-08T03:25:41.327Z,100.00
2023-04-08T03:28:08.745Z,100.00
2023-04-08T03:30:36.481Z,100.00
2023-04-08T03:33:07.892Z,100.00
2023-04-08T03:35:35.558Z,100.00
2023-04-08T03:38:03.016Z,100.00
2023-04-08T03:40:30.410Z,100.00
2023-04-08T03:42:59.163Z,100.00
2023-04-08T03:45:26.603Z,100.00
2023-04-08T03:47:54.046Z,100.00
2023-04-08T03:50:21.478Z,100.00
2023-04-08T03:52:48.889Z,100.00
2023-04-08T03:55:16.297Z,100.00
2023-04-08T03:57:44.917Z,100.00
2023-04-08T04:00:15.149Z,100.00
2023-04-08T04:02:42.609Z,100.00
2023-04-08T04:05:10.662Z,100.00
2023-04-08T04:07:38.058Z,100.00
2023-04-08T04:10:06.562Z,100.00
2023-04-08T04:12:34.011Z,100.00
2023-04-08T04:15:01.405Z,100.00
2023-04-08T04:17:30.183Z,100.00
2023-04-08T04:19:57.642Z,100.00
2023-04-08T04:22:25.096Z,100.00
2023-04-08T04:24:52.517Z,100.00
2023-04-08T04:27:19.918Z,100.00
2023-04-08T04:29:47.369Z,100.00
2023-04-08T04:32:14.814Z,100.00
2023-04-08T04:34:44.454Z,100.00
2023-04-08T04:37:11.971Z,100.00
2023-04-08T04:39:39.448Z,100.00
2023-04-08T04:42:07.514Z,100.00
2023-04-08T04:44:34.956Z,100.00
2023-04-08T04:47:02.373Z,100.00
2023-04-08T04:49:29.928Z,100.00
2023-04-08T04:51:58.764Z,100.00
2023-04-08T04:54:26.507Z,100.00
2023-04-08T04:56:53.956Z,100.00
2023-04-08T04:59:21.433Z,100.00
2023-04-08T05:01:48.982Z,100.00
2023-04-08T05:04:16.518Z,100.00
2023-04-08T05:06:43.934Z,100.00
2023-04-08T05:09:12.684Z,99.66
2023-04-08T05:11:40.094Z,100.00
2023-04-08T05:14:07.927Z,100.00
2023-04-08T05:16:35.772Z,100.00
2023-04-08T05:19:03.316Z,100.00
2023-04-08T05:21:30.787Z,100.00
2023-04-08T05:23:58.168Z,100.00
2023-04-08T05:26:27.146Z,100.00
2023-04-08T05:28:54.633Z,100.00
2023-04-08T05:31:22.330Z,100.00
2023-04-08T05:33:49.765Z,100.00
2023-04-08T05:36:17.319Z,100.00
2023-04-08T05:38:44.750Z,100.00
2023-04-08T05:41:12.280Z,100.00
2023-04-08T05:43:41.262Z,100.00
2023-04-08T05:46:09.179Z,100.00
2023-04-08T05:48:36.737Z,100.00
2023-04-08T05:51:04.499Z,100.00
2023-04-08T05:53:32.192Z,100.00
2023-04-08T05:55:59.646Z,100.00
2023-04-08T05:58:27.069Z,100.00
2023-04-08T06:00:56.395Z,100.00
2023-04-08T06:03:23.942Z,100.00
2023-04-08T06:05:51.630Z,100.00
2023-04-08T06:08:19.054Z,100.00
2023-04-08T06:10:50.021Z,100.00
2023-04-08T06:13:17.464Z,100.00
2023-04-08T06:15:44.934Z,100.00
2023-04-08T06:18:13.656Z,100.00
2023-04-08T06:20:41.048Z,100.00
2023-04-08T06:23:08.449Z,100.00
2023-04-08T06:25:35.861Z,100.00
2023-04-08T06:28:03.308Z,100.00
2023-04-08T06:30:30.720Z,100.00
2023-04-08T06:32:58.167Z,100.00
2023-04-08T06:35:27.967Z,100.00
2023-04-08T06:37:55.918Z,100.00
2023-04-08T06:40:23.330Z,100.00
2023-04-08T06:42:50.788Z,100.00
2023-04-08T06:45:18.188Z,100.00
2023-04-08T06:47:45.672Z,100.00
2023-04-08T06:50:13.097Z,100.00
2023-04-08T06:52:41.848Z,100.00
2023-04-08T06:55:10.004Z,100.00
2023-04-08T06:57:37.441Z,100.00
2023-04-08T07:00:05.690Z,100.00
2023-04-08T07:02:33.233Z,99.35
2023-04-08T07:05:00.978Z,95.42
2023-04-08T07:07:28.412Z,95.19
2023-04-08T07:09:57.197Z,100.00
2023-04-08T07:12:24.737Z,100.00
2023-04-08T07:14:53.080Z,100.00
2023-04-08T07:17:20.584Z,97.15
2023-04-08T07:19:49.265Z,97.48
2023-04-08T07:22:17.287Z,100.00
2023-04-08T07:24:49.561Z,99.87
2023-04-08T07:27:18.374Z,98.62
2023-04-08T07:29:45.809Z,97.35
2023-04-08T07:32:13.217Z,95.96
2023-04-08T07:34:40.749Z,98.86
2023-04-08T07:37:08.148Z,99.32
2023-04-08T07:39:35.588Z,99.01
2023-04-08T07:42:03.053Z,98.90
2023-04-08T07:44:31.820Z,98.32
2023-04-08T07:46:59.271Z,99.41
2023-04-08T07:49:26.721Z,100.00
2023-04-08T07:51:54.170Z,98.15
2023-04-08T07:54:21.604Z,100.00
2023-04-08T07:56:49.034Z,99.69
2023-04-08T07:59:16.674Z,97.78
2023-04-08T08:01:46.893Z,99.29
2023-04-08T08:04:14.838Z,100.00
2023-04-08T08:06:42.378Z,99.96
2023-04-08T08:09:09.833Z,97.75
2023-04-08T08:11:37.232Z,97.47
2023-04-08T08:14:05.270Z,97.31
2023-04-08T08:16:33.710Z,97.44
2023-04-08T08:19:02.901Z,95.82
2023-04-08T08:21:31.292Z,95.61
2023-04-08T08:23:59.616Z,94.83
2023-04-08T08:26:27.331Z,91.09
2023-04-08T08:28:55.040Z,95.41
2023-04-08T08:31:22.614Z,93.92
2023-04-08T08:33:50.250Z,95.08
2023-04-08T08:36:19.513Z,96.98
2023-04-08T08:38:46.973Z,96.19
2023-04-08T08:41:15.412Z,93.09
2023-04-08T08:43:42.861Z,96.48
2023-04-08T08:46:12.420Z,95.15
2023-04-08T08:48:40.743Z,92.33
2023-04-08T08:51:09.949Z,93.88
2023-04-08T08:53:39.117Z,92.42
2023-04-08T08:58:40.318Z,89.60
2023-04-08T09:01:32.797Z,88.96
2023-04-08T09:04:12.185Z,86.97
2023-04-08T09:06:40.028Z,89.77
2023-04-08T09:09:11.132Z,89.20
2023-04-08T09:11:39.878Z,95.56
2023-04-08T09:14:18.209Z,93.73
2023-04-08T09:16:45.856Z,91.63
2023-04-08T09:19:13.493Z,92.81
2023-04-08T09:21:42.305Z,90.20
2023-04-08T09:24:28.967Z,89.38
2023-04-08T09:26:57.097Z,87.27
2023-04-08T09:29:27.120Z,88.42
2023-04-08T09:31:56.938Z,89.23
2023-04-08T09:34:25.210Z,87.87
2023-04-08T09:36:53.057Z,89.31
2023-04-08T09:39:21.972Z,93.77
2023-04-08T09:41:50.992Z,89.74
2023-04-08T09:44:20.758Z,77.97
2023-04-08T09:46:57.631Z,84.79
2023-04-08T09:49:28.002Z,86.18
2023-04-08T09:52:01.009Z,92.07
2023-04-08T09:54:38.884Z,89.52
2023-04-08T09:57:10.717Z,92.58
2023-04-08T09:59:39.938Z,88.08
2023-04-08T10:02:12.403Z,89.26
2023-04-08T10:04:42.609Z,91.06
2023-04-08T10:07:10.539Z,91.17
2023-04-08T10:09:41.504Z,93.25
2023-04-08T10:12:09.098Z,87.95
2023-04-08T10:14:36.551Z,85.29
2023-04-08T10:17:28.596Z,87.21
2023-04-08T10:19:58.562Z,85.45
2023-04-08T10:22:49.104Z,82.77
2023-04-08T10:25:34.433Z,82.85
2023-04-08T10:28:03.397Z,85.49
2023-04-08T10:30:40.418Z,79.92
2023-04-08T10:33:12.221Z,83.09
2023-04-08T10:35:42.904Z,85.99
2023-04-08T10:38:11.685Z,85.18
2023-04-08T10:40:42.897Z,81.68
2023-04-08T10:43:11.530Z,82.11
2023-04-08T10:45:39.558Z,81.07
2023-04-08T10:48:14.358Z,80.55
2023-04-08T10:50:41.948Z,76.66
2023-04-08T10:53:09.472Z,76.46
2023-04-08T10:55:37.019Z,78.52
2023-04-08T10:58:09.485Z,77.19
2023-04-08T11:00:38.236Z,81.29
2023-04-08T11:03:08.228Z,79.88
2023-04-08T11:05:37.066Z,79.98
2023-04-08T11:08:05.533Z,78.88
2023-04-08T11:10:38.393Z,77.97
2023-04-08T11:13:09.890Z,77.20
2023-04-08T11:15:38.046Z,79.02
2023-04-08T11:18:06.382Z,78.04
2023-04-08T11:20:36.185Z,77.47
2023-04-08T11:23:04.055Z,77.65
2023-04-08T11:25:31.960Z,77.15
2023-04-08T11:28:00.253Z,78.71
2023-04-08T11:30:30.834Z,76.71
2023-04-08T11:32:58.419Z,77.66
2023-04-08T11:35:29.936Z,78.86
2023-04-08T11:37:57.945Z,78.78
2023-04-08T11:40:26.325Z,79.15
2023-04-08T11:42:54.162Z,78.96
2023-04-08T11:45:22.535Z,76.97
2023-04-08T11:47:51.512Z,77.96
2023-04-08T11:50:25.620Z,76.73
2023-04-08T11:52:53.814Z,76.21
2023-04-08T11:55:26.364Z,76.96
2023-04-08T11:57:54.556Z,73.49
2023-04-08T12:00:22.954Z,75.95
2023-04-08T12:02:52.857Z,75.14
2023-04-08T12:05:21.429Z,73.89
2023-04-08T12:07:48.973Z,74.54
2023-04-08T12:10:16.482Z,73.49
2023-04-08T12:12:43.940Z,75.24
2023-04-08T12:15:11.981Z,74.43
2023-04-08T12:17:39.714Z,72.53
2023-04-08T12:20:09.678Z,72.09
2023-04-08T12:22:40.165Z,73.25
2023-04-08T12:25:07.979Z,75.63
2023-04-08T12:27:35.650Z,75.95
2023-04-08T12:30:03.959Z,74.08
2023-04-08T12:32:31.783Z,72.43
2023-04-08T12:34:59.198Z,71.46
2023-04-08T12:37:28.611Z,71.16
2023-04-08T12:39:56.071Z,71.46
2023-04-08T12:42:23.486Z,69.12
2023-04-08T12:44:50.936Z,70.84
2023-04-08T12:47:25.579Z,71.29
2023-04-08T12:49:53.668Z,72.24
2023-04-08T12:52:21.097Z,69.61
2023-04-08T12:54:49.824Z,69.47
2023-04-08T12:57:17.523Z,68.25
2023-04-08T12:59:44.923Z,69.47
2023-04-08T13:02:12.376Z,69.63
2023-04-08T13:04:39.804Z,70.33
2023-04-08T13:07:07.627Z,74.01
2023-04-08T13:09:35.070Z,73.40
2023-04-08T13:12:03.982Z,71.41
2023-04-08T13:14:31.414Z,71.22
2023-04-08T13:16:58.851Z,73.29
2023-04-08T13:19:26.331Z,73.88
2023-04-08T13:21:53.697Z,70.57
2023-04-08T13:24:21.194Z,72.72
2023-04-08T13:26:48.609Z,70.88
2023-04-08T13:29:17.333Z,69.60
2023-04-08T13:31:44.878Z,69.84
2023-04-08T13:34:12.355Z,70.47
2023-04-08T13:36:39.787Z,68.92
2023-04-08T13:39:07.244Z,68.21
2023-04-08T13:41:35.009Z,68.21
2023-04-08T13:44:02.430Z,67.53
2023-04-08T13:46:31.336Z,67.86
2023-04-08T13:48:58.933Z,67.82
2023-04-08T13:51:27.414Z,66.20
2023-04-08T13:53:54.794Z,65.83
2023-04-08T13:56:22.221Z,64.62
2023-04-08T13:58:56.539Z,64.20
2023-04-08T14:01:24.842Z,64.53
2023-04-08T14:03:53.643Z,64.63
2023-04-08T14:06:21.141Z,62.93
2023-04-08T14:08:48.671Z,63.21
2023-04-08T14:11:16.328Z,63.77
2023-04-08T14:13:43.748Z,64.79
2023-04-08T14:16:11.169Z,65.75
2023-04-08T14:18:38.598Z,67.63
2023-04-08T14:21:07.518Z,68.40
2023-04-08T14:23:34.974Z,68.45
2023-04-08T14:26:02.412Z,66.77
2023-04-08T14:28:29.910Z,65.83
2023-04-08T14:30:57.380Z,66.53
2023-04-08T14:33:24.887Z,65.13
2023-04-08T14:35:53.583Z,64.50
2023-04-08T14:38:23.032Z,63.48
2023-04-08T14:40:50.728Z,63.19
2023-04-08T14:43:18.185Z,63.40
2023-04-08T14:45:45.962Z,62.97
2023-04-08T14:48:13.426Z,61.93
2023-04-08T14:50:40.836Z,59.46
2023-04-08T14:53:08.252Z,59.89
2023-04-08T14:55:36.953Z,59.77
2023-04-08T14:58:04.352Z,60.03
2023-04-08T15:00:31.731Z,58.99
2023-04-08T15:02:59.293Z,59.96
2023-04-08T15:05:26.746Z,61.69
2023-04-08T15:07:54.717Z,60.95
2023-04-08T15:10:22.155Z,62.06
2023-04-08T15:12:50.852Z,62.41
2023-04-08T15:15:18.265Z,62.11
2023-04-08T15:17:45.722Z,63.65
2023-04-08T15:20:14.448Z,62.76
2023-04-08T15:22:42.162Z,64.85
2023-04-08T15:25:10.849Z,64.09
2023-04-08T15:27:38.666Z,62.33
2023-04-08T15:30:09.808Z,63.02
2023-04-08T15:32:38.204Z,63.06
2023-04-08T15:35:06.668Z,63.62
2023-04-08T15:37:34.161Z,61.63
2023-04-08T15:40:01.814Z,60.92
2023-04-08T15:42:29.370Z,61.19
2023-04-08T15:44:56.761Z,59.78
2023-04-08T15:47:25.995Z,60.35
2023-04-08T15:49:55.797Z,60.45
2023-04-08T15:52:23.252Z,60.68
2023-04-08T15:54:50.732Z,60.40
2023-04-08T15:57:18.164Z,61.45
2023-04-08T15:59:45.624Z,58.71
2023-04-08T16:02:13.141Z,59.14
2023-04-08T16:04:42.768Z,60.15
2023-04-08T16:07:10.475Z,62.32
2023-04-08T16:09:37.898Z,63.12
2023-04-08T16:12:05.561Z,63.30
2023-04-08T16:14:33.012Z,61.86
2023-04-08T16:17:00.414Z,62.70
2023-04-08T16:19:28.259Z,61.41
2023-04-08T16:21:57.057Z,61.79
2023-04-08T16:24:24.498Z,60.92
2023-04-08T16:26:51.910Z,61.93
2023-04-08T16:29:19.376Z,61.59
2023-04-08T16:31:46.876Z,60.76
2023-04-08T16:34:14.533Z,61.47
2023-04-08T16:36:42.280Z,60.73
2023-04-08T16:39:11.086Z,58.82
2023-04-08T16:41:39.338Z,58.69
2023-04-08T16:44:06.980Z,58.42
2023-04-08T16:46:34.503Z,58.71
2023-04-08T16:49:02.396Z,60.23
2023-04-08T16:51:29.921Z,61.59
2023-04-08T16:53:58.949Z,62.44
2023-04-08T16:56:28.229Z,62.42
2023-04-08T16:58:55.767Z,61.77
2023-04-08T17:01:23.229Z,61.46
2023-04-08T17:03:52.830Z,60.54
2023-04-08T17:06:20.678Z,59.93
2023-04-08T17:08:48.144Z,60.12
2023-04-08T17:11:16.302Z,60.63
2023-04-08T17:13:45.655Z,59.64
2023-04-08T17:16:13.986Z,61.14
2023-04-08T17:18:41.650Z,62.24
2023-04-08T17:21:09.120Z,62.95
2023-04-08T17:23:36.542Z,66.72
2023-04-08T17:26:07.496Z,66.16
2023-04-08T17:28:35.224Z,65.02
2023-04-08T17:31:04.166Z,66.59
2023-04-08T17:33:32.121Z,64.73
2023-04-08T17:35:59.568Z,66.26
2023-04-08T17:38:27.065Z,66.47
2023-04-08T17:40:54.787Z,64.97
2023-04-08T17:43:22.221Z,64.97
2023-04-08T17:45:50.129Z,65.50
2023-04-08T17:48:19.019Z,65.35
2023-04-08T17:50:46.530Z,65.29
2023-04-08T17:53:13.941Z,66.36
2023-04-08T17:55:41.375Z,65.74
2023-04-08T17:58:08.836Z,65.84
2023-04-08T18:00:36.288Z,66.01
2023-04-08T18:03:03.823Z,66.39
2023-04-08T18:05:32.742Z,67.59
2023-04-08T18:08:00.202Z,67.06
2023-04-08T18:10:27.665Z,67.12
2023-04-08T18:13:10.341Z,66.22
2023-04-08T18:15:38.968Z,66.51
2023-04-08T18:18:06.381Z,66.33
2023-04-08T18:20:37.750Z,70.58
2023-04-08T18:23:05.390Z,68.50
2023-04-08T18:25:34.455Z,67.77
2023-04-08T18:28:02.156Z,67.20
2023-04-08T18:30:30.100Z,66.78
2023-04-08T18:32:57.640Z,67.26
2023-04-08T18:35:25.316Z,67.37
2023-04-08T18:37:54.197Z,65.96
2023-04-08T18:40:21.851Z,66.44
2023-04-08T18:42:49.245Z,67.22
2023-04-08T18:45:16.832Z,66.16
2023-04-08T18:47:44.286Z,67.37
2023-04-08T18:50:11.932Z,65.42
2023-04-08T18:52:39.510Z,65.72
2023-04-08T18:55:08.767Z,66.46
2023-04-08T18:57:36.177Z,65.62
2023-04-08T19:00:03.714Z,65.39
2023-04-08T19:02:31.713Z,65.02
2023-04-08T19:04:59.415Z,65.20
2023-04-08T19:07:27.423Z,64.51
2023-04-08T19:09:57.560Z,65.57
2023-04-08T19:12:26.626Z,67.18
2023-04-08T19:14:54.124Z,65.14
2023-04-08T19:17:21.590Z,65.70
2023-04-08T19:19:48.999Z,65.09
2023-04-08T19:22:17.033Z,64.96
2023-04-08T19:24:44.634Z,64.50
2023-04-08T19:27:13.905Z,68.74
2023-04-08T19:29:42.750Z,73.09
2023-04-08T19:32:10.249Z,67.18
2023-04-08T19:34:38.470Z,67.17
2023-04-08T19:37:06.042Z,71.35
2023-04-08T19:39:33.490Z,72.28
2023-04-08T19:42:00.878Z,69.41
2023-04-08T19:44:28.408Z,67.24
2023-04-08T19:46:57.830Z,64.84
2023-04-08T19:49:25.774Z,65.64
2023-04-08T19:51:53.243Z,67.69
2023-04-08T19:54:21.779Z,65.77
2023-04-08T19:56:49.446Z,66.58
2023-04-08T19:59:17.149Z,65.68
2023-04-08T20:01:44.629Z,64.94
2023-04-08T20:04:13.561Z,66.56
2023-04-08T20:06:41.225Z,66.51
2023-04-08T20:09:08.861Z,69.01
2023-04-08T20:11:36.407Z,66.87
2023-04-08T20:14:04.293Z,69.05
2023-04-08T20:16:32.080Z,65.23
2023-04-08T20:18:59.703Z,66.83
2023-04-08T20:21:28.746Z,65.60
2023-04-08T20:23:57.063Z,63.37
2023-04-08T20:26:24.434Z,63.45
2023-04-08T20:28:52.076Z,64.52
2023-04-08T20:31:19.987Z,66.38
2023-04-08T20:33:47.472Z,65.46
2023-04-08T20:36:14.936Z,63.74
2023-04-08T20:38:43.785Z,64.17
2023-04-08T20:41:11.329Z,64.72
2023-04-08T20:43:39.391Z,65.93
2023-04-08T20:46:06.853Z,64.70
2023-04-08T20:48:34.480Z,65.50
2023-04-08T20:51:01.955Z,65.53
2023-04-08T20:53:29.819Z,64.84
2023-04-08T20:55:58.664Z,65.28
2023-04-08T20:58:26.062Z,64.54
2023-04-08T21:00:53.612Z,65.21
2023-04-08T21:03:21.448Z,63.90
2023-04-08T21:05:50.127Z,64.37
2023-04-08T21:08:17.824Z,64.55
2023-04-08T21:10:45.206Z,64.71
2023-04-08T21:13:14.043Z,64.17
2023-04-08T21:15:41.469Z,64.30
2023-04-08T21:18:11.079Z,64.65
2023-04-08T21:20:40.418Z,64.92
2023-04-08T21:23:08.146Z,65.46
2023-04-08T21:25:35.613Z,65.61
2023-04-08T21:28:03.049Z,66.69
2023-04-08T21:30:31.848Z,66.50
2023-04-08T21:32:59.313Z,66.52
2023-04-08T21:35:26.914Z,69.62
2023-04-08T21:37:54.340Z,72.43
2023-04-08T21:40:21.810Z,67.79
2023-04-08T21:42:49.379Z,66.71
2023-04-08T21:45:16.920Z,67.34
2023-04-08T21:47:46.069Z,65.20
2023-04-08T21:50:13.532Z,65.10
2023-04-08T21:52:42.305Z,65.15
2023-04-08T21:55:11.340Z,66.45
2023-04-08T21:57:39.261Z,64.46
2023-04-08T22:00:13.153Z,66.24
2023-04-08T22:02:41.472Z,66.20
2023-04-08T22:05:11.760Z,66.10
2023-04-08T22:07:39.277Z,65.70
2023-04-08T22:10:07.932Z,66.65
2023-04-08T22:12:35.495Z,66.92
2023-04-08T22:15:03.570Z,66.98
2023-04-08T22:17:31.379Z,66.85
2023-04-08T22:19:59.159Z,67.42
2023-04-08T22:22:27.910Z,67.42
2023-04-08T22:24:55.390Z,68.66
2023-04-08T22:27:22.834Z,68.55
2023-04-08T22:29:50.249Z,67.91
2023-04-08T22:32:18.210Z,67.59
2023-04-08T22:34:45.675Z,67.96
2023-04-08T22:37:13.219Z,68.76
2023-04-08T22:39:42.017Z,69.11
2023-04-08T22:42:09.526Z,68.04
2023-04-08T22:44:37.000Z,68.46
2023-04-08T22:47:04.611Z,68.62
2023-04-08T22:49:32.034Z,68.31
2023-04-08T22:51:59.557Z,68.09
2023-04-08T22:54:26.996Z,68.69
2023-04-08T22:56:55.782Z,69.43
2023-04-08T22:59:23.289Z,68.25
2023-04-08T23:01:50.888Z,68.87
2023-04-08T23:04:18.423Z,69.01
2023-04-08T23:06:45.959Z,69.39
2023-04-08T23:09:13.454Z,69.17
2023-04-08T23:11:40.863Z,68.42
2023-04-08T23:14:10.987Z,69.21
2023-04-08T23:16:38.401Z,69.23
2023-04-08T23:19:05.804Z,70.04
2023-04-08T23:21:33.276Z,70.74
2023-04-08T23:24:00.786Z,70.63
2023-04-08T23:26:28.274Z,71.53
2023-04-08T23:28:55.873Z,71.23
2023-04-08T23:31:24.687Z,71.42
2023-04-08T23:33:52.099Z,70.22
2023-04-08T23:36:19.533Z,69.53
2023-04-08T23:38:47.024Z,69.37
2023-04-08T23:41:14.414Z,70.94
2023-04-08T23:43:41.812Z,71.02
2023-04-08T23:46:09.289Z,70.54
2023-04-08T23:48:38.020Z,70.01
2023-04-08T23:51:06.108Z,68.96
2023-04-08T23:53:33.637Z,69.94
2023-04-08T23:56:05.835Z,71.36
2023-04-08T23:58:33.628Z,72.10
